Time;durP1;ratioP1;P1;durP2;ratioP2;P2;SDS_P1;SDS_P2;PMS_P1;PMS_P2;Temp;Humidity;BMP_temperature;BMP_pressure;BME280_temperature;BME280_humidity;BME280_pressure;Samples;Min_cycle;Max_cycle;Signal;HPM_P1;HPM_P2
2021/06/30 00:00:46;;;;;;;;;;;20.40;58.90;;;;;;1485116;39;20264;-69
2021/06/30 00:02:07;;;;;;;;;;;20.40;58.50;;;;;;1486404;39;19944;-69
2021/06/30 00:03:28;;;;;;;;;;;20.40;58.50;;;;;;1487350;40;19936;-70
2021/06/30 00:04:49;;;;;;;;;;;20.40;58.40;;;;;;1487613;40;20251;-70
2021/06/30 00:06:10;;;;;;;;;;;20.40;58.50;;;;;;1484101;40;19955;-70
2021/06/30 00:07:32;;;;;;;;;;;20.40;58.80;;;;;;1486394;40;19955;-70
2021/06/30 00:08:54;;;;;;;;;;;20.40;58.40;;;;;;1485409;40;20143;-71
2021/06/30 00:10:15;;;;;;;;;;;20.40;58.10;;;;;;1485924;40;19943;-70
2021/06/30 00:11:36;;;;;;;;;;;20.40;57.90;;;;;;1485398;40;20362;-70
2021/06/30 00:12:56;;;;;;;;;;;20.40;57.80;;;;;;1482053;40;19940;-70
2021/06/30 00:14:17;;;;;;;;;;;20.40;57.80;;;;;;1486128;40;20187;-70
2021/06/30 00:15:39;;;;;;;;;;;20.40;57.70;;;;;;1485547;40;20164;-70
2021/06/30 00:17:00;;;;;;;;;;;20.40;57.70;;;;;;1485614;40;19937;-69
2021/06/30 00:18:22;;;;;;;;;;;20.40;57.70;;;;;;1487241;40;19947;-70
2021/06/30 00:19:43;;;;;;;;;;;20.40;57.70;;;;;;1484061;40;19936;-69
2021/06/30 00:21:04;;;;;;;;;;;20.40;57.70;;;;;;1488411;39;20277;-69
2021/06/30 00:22:25;;;;;;;;;;;20.40;57.60;;;;;;1488702;39;19932;-70
2021/06/30 00:23:46;;;;;;;;;;;20.50;57.60;;;;;;1489259;40;19936;-70
2021/06/30 00:25:07;;;;;;;;;;;20.50;57.60;;;;;;1485488;40;19937;-70
2021/06/30 00:26:28;;;;;;;;;;;20.40;57.50;;;;;;1488737;40;19940;-70
2021/06/30 00:27:49;;;;;;;;;;;20.50;57.50;;;;;;1487574;40;20292;-69
2021/06/30 00:29:10;;;;;;;;;;;20.50;57.50;;;;;;1488633;40;19955;-70
2021/06/30 00:30:31;;;;;;;;;;;20.50;57.60;;;;;;1487552;40;19932;-69
2021/06/30 00:31:52;;;;;;;;;;;20.50;57.50;;;;;;1488023;40;19973;-69
2021/06/30 00:33:13;;;;;;;;;;;20.60;57.70;;;;;;1487401;40;20251;-70
2021/06/30 00:34:34;;;;;;;;;;;20.60;57.70;;;;;;1486462;40;19933;-70
2021/06/30 00:35:54;;;;;;;;;;;20.60;57.70;;;;;;1487889;40;19948;-70
2021/06/30 00:37:15;;;;;;;;;;;20.60;57.70;;;;;;1488295;40;20462;-70
2021/06/30 00:38:36;;;;;;;;;;;20.60;58.10;;;;;;1485157;40;20269;-70
2021/06/30 00:39:57;;;;;;;;;;;20.60;58.10;;;;;;1484923;40;19943;-70
2021/06/30 00:41:18;;;;;;;;;;;20.60;58.00;;;;;;1488952;39;19936;-70
2021/06/30 00:42:39;;;;;;;;;;;20.60;58.00;;;;;;1485023;40;19940;-69
2021/06/30 00:44:00;;;;;;;;;;;20.60;58.10;;;;;;1486266;40;19936;-70
2021/06/30 00:45:21;;;;;;;;;;;20.60;58.10;;;;;;1488042;40;19948;-69
2021/06/30 00:46:41;;;;;;;;;;;20.60;57.80;;;;;;1487140;40;20036;-70
2021/06/30 00:48:02;;;;;;;;;;;20.60;57.80;;;;;;1488960;40;20363;-70
2021/06/30 00:49:23;;;;;;;;;;;20.60;57.70;;;;;;1487954;40;20202;-69
2021/06/30 00:50:44;;;;;;;;;;;20.60;57.60;;;;;;1489283;40;19934;-70
2021/06/30 00:52:05;;;;;;;;;;;20.60;57.60;;;;;;1487852;40;19948;-70
2021/06/30 00:53:25;;;;;;;;;;;20.60;57.90;;;;;;1489059;40;19975;-69
2021/06/30 00:54:46;;;;;;;;;;;20.60;57.80;;;;;;1488298;40;19968;-70
2021/06/30 00:56:07;;;;;;;;;;;20.60;57.70;;;;;;1487930;40;20039;-70
2021/06/30 00:57:28;;;;;;;;;;;20.40;57.50;;;;;;1486981;40;19948;-70
2021/06/30 00:58:50;;;;;;;;;;;20.60;58.00;;;;;;1483363;40;19952;-70
2021/06/30 01:00:11;;;;;;;;;;;20.60;57.80;;;;;;1486311;40;19951;-69
2021/06/30 01:01:32;;;;;;;;;;;20.60;57.70;;;;;;1487774;39;20029;-69
2021/06/30 01:02:53;;;;;;;;;;;20.60;57.80;;;;;;1486915;39;19951;-70
2021/06/30 01:04:13;;;;;;;;;;;20.60;57.70;;;;;;1487311;40;19936;-70
2021/06/30 01:05:34;;;;;;;;;;;20.60;57.60;;;;;;1487478;40;19943;-70
2021/06/30 01:06:55;;;;;;;;;;;20.60;57.90;;;;;;1487654;40;19936;-70
2021/06/30 01:08:16;;;;;;;;;;;20.60;58.10;;;;;;1487052;40;19936;-70
2021/06/30 01:09:37;;;;;;;;;;;20.60;57.90;;;;;;1487246;40;19991;-70
2021/06/30 01:10:57;;;;;;;;;;;20.70;57.80;;;;;;1488123;40;19949;-69
2021/06/30 01:12:18;;;;;;;;;;;20.60;57.60;;;;;;1486657;40;20264;-69
2021/06/30 01:13:40;;;;;;;;;;;20.70;57.70;;;;;;1486108;40;19949;-69
2021/06/30 01:15:04;;;;;;;;;;;20.70;57.70;;;;;;1487803;40;20042;-70
2021/06/30 01:16:25;;;;;;;;;;;20.70;57.70;;;;;;1483091;40;19941;-69
2021/06/30 01:17:47;;;;;;;;;;;20.70;57.80;;;;;;1485517;40;19932;-70
2021/06/30 01:19:08;;;;;;;;;;;20.70;57.80;;;;;;1488056;40;19949;-69
2021/06/30 01:20:29;;;;;;;;;;;20.70;57.70;;;;;;1487487;40;20050;-70
2021/06/30 01:21:50;;;;;;;;;;;20.70;57.70;;;;;;1487594;39;19972;-70
2021/06/30 01:23:11;;;;;;;;;;;20.70;57.70;;;;;;1488002;39;20069;-69
2021/06/30 01:24:33;;;;;;;;;;;20.70;57.70;;;;;;1487557;40;19940;-69
2021/06/30 01:25:54;;;;;;;;;;;20.70;57.70;;;;;;1483575;40;19948;-69
2021/06/30 01:27:18;;;;;;;;;;;20.70;57.80;;;;;;1486480;40;19940;-70
2021/06/30 01:28:38;;;;;;;;;;;20.70;57.70;;;;;;1486426;40;20611;-69
2021/06/30 01:29:59;;;;;;;;;;;20.70;57.60;;;;;;1482410;40;19949;-70
2021/06/30 01:31:20;;;;;;;;;;;20.80;57.70;;;;;;1487045;40;19959;-70
2021/06/30 01:32:41;;;;;;;;;;;20.70;57.70;;;;;;1487110;39;20386;-70
2021/06/30 01:34:02;;;;;;;;;;;20.80;57.70;;;;;;1487387;40;19948;-69
2021/06/30 01:35:23;;;;;;;;;;;20.80;57.80;;;;;;1487056;40;19940;-69
2021/06/30 01:36:45;;;;;;;;;;;20.80;58.00;;;;;;1486204;40;19944;-69
2021/06/30 01:38:06;;;;;;;;;;;20.70;57.80;;;;;;1487418;40;19950;-70
2021/06/30 01:39:27;;;;;;;;;;;20.80;57.80;;;;;;1486474;40;19976;-70
2021/06/30 01:40:48;;;;;;;;;;;20.80;57.70;;;;;;1485135;40;19933;-69
2021/06/30 01:42:09;;;;;;;;;;;20.80;57.80;;;;;;1486812;39;19936;-70
2021/06/30 01:43:30;;;;;;;;;;;20.80;57.70;;;;;;1486256;39;19947;-69
2021/06/30 01:44:50;;;;;;;;;;;20.70;57.60;;;;;;1487140;40;20024;-69
2021/06/30 01:46:11;;;;;;;;;;;20.70;57.60;;;;;;1487720;40;19960;-70
2021/06/30 01:47:32;;;;;;;;;;;20.70;57.60;;;;;;1486382;40;19932;-70
2021/06/30 01:48:53;;;;;;;;;;;20.70;57.60;;;;;;1485712;40;19932;-70
2021/06/30 01:50:14;;;;;;;;;;;20.70;57.60;;;;;;1485844;40;19932;-70
2021/06/30 01:51:36;;;;;;;;;;;20.70;57.50;;;;;;1487242;40;20348;-70
2021/06/30 01:52:57;;;;;;;;;;;20.70;57.60;;;;;;1487328;40;19951;-70
2021/06/30 01:54:19;;;;;;;;;;;20.70;57.60;;;;;;1485636;40;20201;-70
2021/06/30 01:55:40;;;;;;;;;;;20.70;57.60;;;;;;1486236;40;20021;-70
2021/06/30 01:57:00;;;;;;;;;;;20.70;57.60;;;;;;1487604;40;19936;-70
2021/06/30 01:58:22;;;;;;;;;;;20.70;57.80;;;;;;1486950;40;19972;-70
2021/06/30 01:59:43;;;;;;;;;;;20.70;57.70;;;;;;1486229;40;19932;-70
2021/06/30 02:01:04;;;;;;;;;;;20.70;57.70;;;;;;1488733;40;19936;-70
2021/06/30 02:02:25;;;;;;;;;;;20.70;57.80;;;;;;1486907;40;19932;-70
2021/06/30 02:03:46;;;;;;;;;;;20.70;57.70;;;;;;1487096;39;19972;-70
2021/06/30 02:05:09;;;;;;;;;;;20.70;58.30;;;;;;1486175;40;19940;-70
2021/06/30 02:06:34;;;;;;;;;;;20.70;57.90;;;;;;1485856;40;20073;-70
2021/06/30 02:07:58;;;;;;;;;;;20.70;57.90;;;;;;1488385;40;20481;-70
2021/06/30 02:09:19;;;;;;;;;;;20.70;58.00;;;;;;1486984;40;19940;-70
2021/06/30 02:10:40;;;;;;;;;;;20.70;57.90;;;;;;1487816;39;20028;-70
2021/06/30 02:12:01;;;;;;;;;;;20.70;57.80;;;;;;1487180;39;19947;-70
2021/06/30 02:13:22;;;;;;;;;;;20.80;57.80;;;;;;1485823;40;20028;-69
2021/06/30 02:14:42;;;;;;;;;;;20.70;57.70;;;;;;1485772;40;19940;-70
2021/06/30 02:16:03;;;;;;;;;;;20.70;57.70;;;;;;1487726;40;19939;-70
2021/06/30 02:17:24;;;;;;;;;;;20.70;57.70;;;;;;1486780;40;19932;-70
2021/06/30 02:18:45;;;;;;;;;;;20.70;57.70;;;;;;1485989;40;19936;-70
2021/06/30 02:20:07;;;;;;;;;;;20.70;57.80;;;;;;1487310;40;19959;-70
2021/06/30 02:21:28;;;;;;;;;;;20.70;57.80;;;;;;1486538;40;20029;-69
2021/06/30 02:22:50;;;;;;;;;;;20.80;58.10;;;;;;1487313;39;20189;-69
2021/06/30 02:24:10;;;;;;;;;;;20.80;58.00;;;;;;1488042;39;19936;-70
2021/06/30 02:25:31;;;;;;;;;;;20.80;58.00;;;;;;1485291;40;19948;-69
2021/06/30 02:26:52;;;;;;;;;;;20.80;58.00;;;;;;1485435;40;20256;-70
2021/06/30 02:28:13;;;;;;;;;;;20.80;57.90;;;;;;1486233;40;19940;-70
2021/06/30 02:29:34;;;;;;;;;;;20.80;57.80;;;;;;1486221;40;19932;-71
2021/06/30 02:30:54;;;;;;;;;;;20.80;57.90;;;;;;1486876;40;19943;-70
2021/06/30 02:32:15;;;;;;;;;;;20.80;57.80;;;;;;1487120;40;19944;-70
2021/06/30 02:33:36;;;;;;;;;;;20.80;57.80;;;;;;1486726;40;20179;-70
2021/06/30 02:34:57;;;;;;;;;;;21.40;58.20;;;;;;1487291;40;19931;-71
2021/06/30 02:36:18;;;;;;;;;;;20.80;57.90;;;;;;1486427;40;20257;-70
2021/06/30 02:37:39;;;;;;;;;;;20.80;57.90;;;;;;1487534;40;19940;-71
2021/06/30 02:39:00;;;;;;;;;;;20.80;58.00;;;;;;1482700;40;19948;-70
2021/06/30 02:40:22;;;;;;;;;;;20.80;58.00;;;;;;1481292;40;19932;-70
2021/06/30 02:41:43;;;;;;;;;;;20.80;58.00;;;;;;1485449;39;19971;-69
2021/06/30 02:43:04;;;;;;;;;;;20.80;58.00;;;;;;1487060;39;19932;-70
2021/06/30 02:44:25;;;;;;;;;;;20.80;58.00;;;;;;1486056;39;19936;-70
2021/06/30 02:45:46;;;;;;;;;;;20.80;58.00;;;;;;1481171;40;19937;-70
2021/06/30 02:47:07;;;;;;;;;;;20.80;58.00;;;;;;1484441;40;19936;-69
2021/06/30 02:48:28;;;;;;;;;;;20.80;58.00;;;;;;1486843;40;19943;-70
2021/06/30 02:49:49;;;;;;;;;;;20.80;58.00;;;;;;1486724;40;19938;-70
2021/06/30 02:51:09;;;;;;;;;;;20.80;58.10;;;;;;1486395;40;19932;-69
2021/06/30 02:52:31;;;;;;;;;;;20.80;58.20;;;;;;1486414;40;20344;-70
2021/06/30 02:53:52;;;;;;;;;;;20.80;58.10;;;;;;1487477;40;19989;-69
2021/06/30 02:55:13;;;;;;;;;;;20.80;58.30;;;;;;1487015;40;19942;-70
2021/06/30 02:56:34;;;;;;;;;;;20.80;58.30;;;;;;1485620;40;19939;-70
2021/06/30 02:57:55;;;;;;;;;;;20.80;58.30;;;;;;1486825;39;19947;-70
2021/06/30 02:59:16;;;;;;;;;;;20.80;58.70;;;;;;1485804;40;20286;-69
2021/06/30 03:00:36;;;;;;;;;;;20.80;58.30;;;;;;1484788;40;19932;-69
2021/06/30 03:01:57;;;;;;;;;;;20.80;58.90;;;;;;1486440;40;19952;-70
2021/06/30 03:03:18;;;;;;;;;;;20.80;58.30;;;;;;1485914;39;19942;-70
2021/06/30 03:04:39;;;;;;;;;;;20.80;58.30;;;;;;1481016;40;19939;-70
2021/06/30 03:06:00;;;;;;;;;;;20.80;58.40;;;;;;1485251;40;20089;-70
2021/06/30 03:07:20;;;;;;;;;;;20.80;58.30;;;;;;1487513;40;19940;-70
2021/06/30 03:08:41;;;;;;;;;;;20.80;58.50;;;;;;1486018;40;19958;-70
2021/06/30 03:10:02;;;;;;;;;;;20.80;58.50;;;;;;1487062;40;19939;-70
2021/06/30 03:11:23;;;;;;;;;;;20.80;58.50;;;;;;1486280;40;20000;-70
2021/06/30 03:12:44;;;;;;;;;;;20.80;58.60;;;;;;1485829;40;19951;-70
2021/06/30 03:14:05;;;;;;;;;;;20.80;58.50;;;;;;1485884;40;20025;-70
2021/06/30 03:15:26;;;;;;;;;;;20.80;58.30;;;;;;1486375;40;19944;-71
2021/06/30 03:16:47;;;;;;;;;;;20.80;58.50;;;;;;1486701;40;19940;-70
2021/06/30 03:18:08;;;;;;;;;;;20.80;58.40;;;;;;1484603;40;20022;-70
2021/06/30 03:19:29;;;;;;;;;;;20.70;58.90;;;;;;1485949;40;19965;-69
2021/06/30 03:20:49;;;;;;;;;;;20.60;58.80;;;;;;1486528;39;19931;-70
2021/06/30 03:22:10;;;;;;;;;;;20.70;58.60;;;;;;1486211;39;19943;-70
2021/06/30 03:23:31;;;;;;;;;;;20.70;58.70;;;;;;1486561;40;20208;-70
2021/06/30 03:24:52;;;;;;;;;;;20.70;58.70;;;;;;1477727;40;19936;-70
2021/06/30 03:26:13;;;;;;;;;;;20.70;58.50;;;;;;1484855;40;19943;-70
2021/06/30 03:27:34;;;;;;;;;;;20.70;58.50;;;;;;1484107;40;19948;-70
2021/06/30 03:28:55;;;;;;;;;;;20.70;58.40;;;;;;1485467;40;20176;-70
2021/06/30 03:30:16;;;;;;;;;;;20.70;58.40;;;;;;1487994;39;19936;-70
2021/06/30 03:31:37;;;;;;;;;;;20.70;58.50;;;;;;1487476;40;19943;-70
2021/06/30 03:32:58;;;;;;;;;;;20.70;58.60;;;;;;1487265;40;20125;-70
2021/06/30 03:34:19;;;;;;;;;;;20.70;59.00;;;;;;1487315;40;19944;-70
2021/06/30 03:35:39;;;;;;;;;;;20.70;58.70;;;;;;1486185;40;19936;-69
2021/06/30 03:37:00;;;;;;;;;;;20.70;58.60;;;;;;1487451;40;19940;-70
2021/06/30 03:38:21;;;;;;;;;;;20.70;58.60;;;;;;1487333;40;19994;-70
2021/06/30 03:39:42;;;;;;;;;;;20.70;58.50;;;;;;1486309;40;19943;-70
2021/06/30 03:41:05;;;;;;;;;;;20.60;58.50;;;;;;1487859;39;20338;-70
2021/06/30 03:42:26;;;;;;;;;;;21.70;59.10;;;;;;1487889;39;19950;-70
2021/06/30 03:43:46;;;;;;;;;;;20.60;58.50;;;;;;1487671;40;19971;-69
2021/06/30 03:45:07;;;;;;;;;;;20.60;58.60;;;;;;1485632;40;19939;-70
2021/06/30 03:46:28;;;;;;;;;;;20.70;58.50;;;;;;1485765;40;19944;-70
2021/06/30 03:47:49;;;;;;;;;;;20.60;58.50;;;;;;1485098;40;19936;-70
2021/06/30 03:49:10;;;;;;;;;;;20.70;58.60;;;;;;1486376;40;20491;-70
2021/06/30 03:50:31;;;;;;;;;;;20.60;58.50;;;;;;1486213;40;20357;-70
2021/06/30 03:51:51;;;;;;;;;;;20.60;58.40;;;;;;1486276;40;19938;-69
2021/06/30 03:53:12;;;;;;;;;;;20.70;58.50;;;;;;1487175;40;19943;-70
2021/06/30 03:54:33;;;;;;;;;;;20.60;58.50;;;;;;1485706;40;19956;-69
2021/06/30 03:55:54;;;;;;;;;;;20.40;58.60;;;;;;1487079;40;19932;-70
2021/06/30 03:57:15;;;;;;;;;;;20.70;58.60;;;;;;1487479;40;19948;-70
2021/06/30 03:58:36;;;;;;;;;;;20.70;58.60;;;;;;1485507;40;20243;-70
2021/06/30 03:59:56;;;;;;;;;;;20.70;58.60;;;;;;1486535;39;19951;-70
2021/06/30 04:01:17;;;;;;;;;;;20.70;59.10;;;;;;1487038;39;19943;-70
2021/06/30 04:02:38;;;;;;;;;;;20.70;58.60;;;;;;1486660;39;20185;-70
2021/06/30 04:04:01;;;;;;;;;;;20.70;58.60;;;;;;1485947;40;20226;-69
2021/06/30 04:05:23;;;;;;;;;;;20.70;58.50;;;;;;1487447;40;19936;-70
2021/06/30 04:06:43;;;;;;;;;;;20.70;58.50;;;;;;1487109;39;19935;-70
2021/06/30 04:08:09;;;;;;;;;;;20.70;58.60;;;;;;1487653;39;19931;-69
2021/06/30 04:09:30;;;;;;;;;;;20.70;58.60;;;;;;1487336;40;19939;-70
2021/06/30 04:10:50;;;;;;;;;;;20.70;58.70;;;;;;1486065;40;19936;-70
2021/06/30 04:12:11;;;;;;;;;;;20.70;58.70;;;;;;1486874;40;19940;-70
2021/06/30 04:13:32;;;;;;;;;;;20.70;58.70;;;;;;1485589;40;19943;-67
2021/06/30 04:14:53;;;;;;;;;;;20.70;58.70;;;;;;1486443;40;20271;-67
2021/06/30 04:16:14;;;;;;;;;;;20.80;59.00;;;;;;1486730;40;19936;-68
2021/06/30 04:17:35;;;;;;;;;;;20.70;59.10;;;;;;1487098;40;19932;-70
2021/06/30 04:18:56;;;;;;;;;;;20.80;59.30;;;;;;1484696;40;19943;-71
2021/06/30 04:20:16;;;;;;;;;;;20.70;59.00;;;;;;1485359;40;19936;-69
2021/06/30 04:21:37;;;;;;;;;;;20.70;58.90;;;;;;1486212;40;20210;-70
2021/06/30 04:22:58;;;;;;;;;;;20.70;59.00;;;;;;1485749;40;19940;-70
2021/06/30 04:24:19;;;;;;;;;;;20.80;59.20;;;;;;1485813;40;20153;-70
2021/06/30 04:25:40;;;;;;;;;;;20.70;59.40;;;;;;1485498;40;20030;-70
2021/06/30 04:27:00;;;;;;;;;;;20.70;59.80;;;;;;1487116;40;19936;-70
2021/06/30 04:28:21;;;;;;;;;;;20.70;59.80;;;;;;1485661;39;20021;-70
2021/06/30 04:29:42;;;;;;;;;;;20.70;59.60;;;;;;1487312;40;19952;-70
2021/06/30 04:31:03;;;;;;;;;;;20.70;59.60;;;;;;1487068;40;19971;-70
2021/06/30 04:32:24;;;;;;;;;;;20.70;59.80;;;;;;1485701;40;20315;-69
2021/06/30 04:33:44;;;;;;;;;;;20.70;59.70;;;;;;1487360;40;19932;-68
2021/06/30 04:35:06;;;;;;;;;;;20.70;60.20;;;;;;1485125;40;19940;-68
2021/06/30 04:36:27;;;;;;;;;;;20.70;59.70;;;;;;1486443;40;19944;-68
2021/06/30 04:37:48;;;;;;;;;;;20.70;59.80;;;;;;1484876;40;19933;-67
2021/06/30 04:39:09;;;;;;;;;;;20.60;59.70;;;;;;1486084;40;19943;-70
2021/06/30 04:40:30;;;;;;;;;;;20.60;59.60;;;;;;1486285;40;19948;-70
2021/06/30 04:41:51;;;;;;;;;;;20.60;59.60;;;;;;1486240;40;19944;-70
2021/06/30 04:43:11;;;;;;;;;;;20.60;60.10;;;;;;1486222;40;19940;-70
2021/06/30 04:44:32;;;;;;;;;;;20.60;60.60;;;;;;1485664;40;19938;-70
2021/06/30 04:45:53;;;;;;;;;;;20.60;59.70;;;;;;1487193;40;20257;-70
2021/06/30 04:47:14;;;;;;;;;;;20.60;59.80;;;;;;1486918;40;19947;-70
2021/06/30 04:48:35;;;;;;;;;;;20.60;59.80;;;;;;1486091;40;19942;-70
2021/06/30 04:49:55;;;;;;;;;;;20.60;60.00;;;;;;1486986;40;19970;-67
2021/06/30 04:51:16;;;;;;;;;;;20.50;59.80;;;;;;1486054;40;19932;-70
2021/06/30 04:52:37;;;;;;;;;;;20.50;60.00;;;;;;1486930;40;19932;-70
2021/06/30 04:53:58;;;;;;;;;;;20.50;60.20;;;;;;1485723;40;20017;-70
2021/06/30 04:55:19;;;;;;;;;;;20.50;60.20;;;;;;1484160;40;20416;-70
2021/06/30 04:56:40;;;;;;;;;;;20.50;60.00;;;;;;1485170;40;19948;-70
2021/06/30 04:58:00;;;;;;;;;;;20.50;59.90;;;;;;1481928;40;19944;-70
2021/06/30 04:59:23;;;;;;;;;;;20.50;60.40;;;;;;1484522;40;20033;-70
2021/06/30 05:00:43;;;;;;;;;;;20.50;60.10;;;;;;1481638;40;19932;-68
2021/06/30 05:02:04;;;;;;;;;;;20.40;59.90;;;;;;1484406;40;20172;-67
2021/06/30 05:03:30;;;;;;;;;;;20.50;59.90;;;;;;1485193;40;19980;-68
2021/06/30 05:04:50;;;;;;;;;;;20.30;59.70;;;;;;1485385;40;19932;-69
2021/06/30 05:06:12;;;;;;;;;;;20.40;60.50;;;;;;1484956;40;19937;-67
2021/06/30 05:07:33;;;;;;;;;;;20.50;60.40;;;;;;1483500;40;19932;-68
2021/06/30 05:08:54;;;;;;;;;;;20.40;60.40;;;;;;1483873;40;20029;-70
2021/06/30 05:10:14;;;;;;;;;;;20.40;60.60;;;;;;1486491;40;20219;-70
2021/06/30 05:11:35;;;;;;;;;;;20.40;60.30;;;;;;1487721;40;19942;-67
2021/06/30 05:12:56;;;;;;;;;;;20.40;60.50;;;;;;1487111;40;19948;-69
2021/06/30 05:14:17;;;;;;;;;;;20.40;60.50;;;;;;1485720;40;19980;-70
2021/06/30 05:15:38;;;;;;;;;;;20.40;60.10;;;;;;1487667;40;20330;-70
2021/06/30 05:16:59;;;;;;;;;;;21.00;60.50;;;;;;1486863;40;19963;-70
2021/06/30 05:18:19;;;;;;;;;;;20.30;60.10;;;;;;1486363;39;19932;-68
2021/06/30 05:19:40;;;;;;;;;;;20.30;59.90;;;;;;1486422;40;19936;-70
2021/06/30 05:21:01;;;;;;;;;;;20.40;60.00;;;;;;1481808;40;20255;-70
2021/06/30 05:22:22;;;;;;;;;;;20.40;59.90;;;;;;1485495;40;19940;-70
2021/06/30 05:23:43;;;;;;;;;;;20.30;59.90;;;;;;1487447;40;19943;-68
2021/06/30 05:25:04;;;;;;;;;;;20.30;60.20;;;;;;1480872;40;19952;-70
2021/06/30 05:26:25;;;;;;;;;;;20.30;60.10;;;;;;1484125;40;19970;-70
2021/06/30 05:27:45;;;;;;;;;;;20.30;60.00;;;;;;1486233;40;19940;-70
2021/06/30 05:29:06;;;;;;;;;;;20.30;60.20;;;;;;1485890;40;19947;-70
2021/06/30 05:30:27;;;;;;;;;;;20.30;60.10;;;;;;1486273;40;20218;-69
2021/06/30 05:31:48;;;;;;;;;;;20.30;60.00;;;;;;1485895;40;19939;-70
2021/06/30 05:33:09;;;;;;;;;;;20.30;60.30;;;;;;1486860;40;19940;-70
2021/06/30 05:34:30;;;;;;;;;;;20.30;60.60;;;;;;1487303;40;19958;-70
2021/06/30 05:35:50;;;;;;;;;;;20.30;60.30;;;;;;1484901;40;19947;-70
2021/06/30 05:37:11;;;;;;;;;;;20.30;60.50;;;;;;1486726;40;20318;-70
2021/06/30 05:38:33;;;;;;;;;;;20.30;60.50;;;;;;1488432;40;19944;-69
2021/06/30 05:39:54;;;;;;;;;;;20.30;60.70;;;;;;1485285;40;20202;-70
2021/06/30 05:41:15;;;;;;;;;;;20.30;60.90;;;;;;1480537;40;19996;-68
2021/06/30 05:42:35;;;;;;;;;;;20.30;60.70;;;;;;1484518;40;19940;-69
2021/06/30 05:43:56;;;;;;;;;;;20.30;60.50;;;;;;1488912;40;19968;-69
2021/06/30 05:45:17;;;;;;;;;;;20.30;60.40;;;;;;1488332;39;20263;-69
2021/06/30 05:46:39;;;;;;;;;;;20.30;60.20;;;;;;1488613;40;19983;-70
2021/06/30 05:48:00;;;;;;;;;;;20.30;60.60;;;;;;1486444;40;19932;-69
2021/06/30 05:49:20;;;;;;;;;;;20.20;60.20;;;;;;1485968;40;20148;-69
2021/06/30 05:50:41;;;;;;;;;;;20.30;60.30;;;;;;1488038;40;19985;-69
2021/06/30 05:52:02;;;;;;;;;;;20.30;60.30;;;;;;1484488;40;20250;-70
2021/06/30 05:53:23;;;;;;;;;;;20.20;60.10;;;;;;1485899;40;19951;-70
2021/06/30 05:54:46;;;;;;;;;;;20.30;60.30;;;;;;1488475;40;19940;-70
2021/06/30 05:56:07;;;;;;;;;;;20.20;60.60;;;;;;1485112;40;19983;-69
2021/06/30 05:57:28;;;;;;;;;;;20.70;61.00;;;;;;1488161;40;20293;-69
2021/06/30 05:58:48;;;;;;;;;;;20.30;60.70;;;;;;1486247;39;19944;-69
2021/06/30 06:00:12;;;;;;;;;;;20.30;60.70;;;;;;1486868;40;19936;-69
2021/06/30 06:01:33;;;;;;;;;;;20.30;60.50;;;;;;1484173;40;19937;-69
2021/06/30 06:02:54;;;;;;;;;;;20.30;60.90;;;;;;1484756;40;20022;-69
2021/06/30 06:04:14;;;;;;;;;;;20.30;60.90;;;;;;1486478;40;19943;-70
2021/06/30 06:05:35;;;;;;;;;;;20.30;60.80;;;;;;1486543;40;19936;-69
2021/06/30 06:06:56;;;;;;;;;;;20.30;60.50;;;;;;1486052;40;19948;-69
2021/06/30 06:08:17;;;;;;;;;;;20.40;60.70;;;;;;1482799;40;19990;-69
2021/06/30 06:09:38;;;;;;;;;;;20.40;60.70;;;;;;1485165;40;20045;-70
2021/06/30 06:10:59;;;;;;;;;;;20.40;60.50;;;;;;1486149;40;20162;-70
2021/06/30 06:12:20;;;;;;;;;;;20.40;60.80;;;;;;1487466;40;19936;-70
2021/06/30 06:13:41;;;;;;;;;;;20.40;60.60;;;;;;1482804;40;19939;-69
2021/06/30 06:15:03;;;;;;;;;;;20.40;60.40;;;;;;1486078;40;19948;-69
2021/06/30 06:16:24;;;;;;;;;;;20.40;60.70;;;;;;1487330;40;19952;-70
2021/06/30 06:17:45;;;;;;;;;;;20.50;60.80;;;;;;1484191;40;19943;-70
2021/06/30 06:19:07;;;;;;;;;;;20.50;60.70;;;;;;1483514;40;19941;-69
2021/06/30 06:20:28;;;;;;;;;;;20.50;60.50;;;;;;1487724;40;19976;-70
2021/06/30 06:21:48;;;;;;;;;;;20.50;60.30;;;;;;1486002;40;19940;-69
2021/06/30 06:23:10;;;;;;;;;;;20.50;60.20;;;;;;1485851;40;19932;-69
2021/06/30 06:24:31;;;;;;;;;;;20.50;60.30;;;;;;1481962;40;19932;-70
2021/06/30 06:25:52;;;;;;;;;;;20.50;60.20;;;;;;1485987;40;19932;-69
2021/06/30 06:27:13;;;;;;;;;;;20.50;60.30;;;;;;1488289;40;19936;-69
2021/06/30 06:28:34;;;;;;;;;;;20.60;60.50;;;;;;1487054;40;19936;-70
2021/06/30 06:29:55;;;;;;;;;;;20.50;60.30;;;;;;1485858;40;20252;-70
2021/06/30 06:31:18;;;;;;;;;;;20.50;60.20;;;;;;1487554;40;20267;-70
2021/06/30 06:32:38;;;;;;;;;;;20.50;60.70;;;;;;1486295;40;19944;-69
2021/06/30 06:33:59;;;;;;;;;;;20.60;60.50;;;;;;1484665;40;20037;-70
2021/06/30 06:35:20;;;;;;;;;;;20.60;60.60;;;;;;1487753;39;20391;-69
2021/06/30 06:36:41;;;;;;;;;;;20.60;60.80;;;;;;1488255;39;20068;-69
2021/06/30 06:38:01;;;;;;;;;;;20.60;60.80;;;;;;1487854;40;20184;-69
2021/06/30 06:39:22;;;;;;;;;;;20.60;60.70;;;;;;1486613;40;19948;-70
2021/06/30 06:40:43;;;;;;;;;;;20.60;60.70;;;;;;1481990;40;20026;-70
2021/06/30 06:42:08;;;;;;;;;;;20.60;60.40;;;;;;1486025;40;19936;-69
2021/06/30 06:43:29;;;;;;;;;;;20.60;60.60;;;;;;1486293;40;19935;-69
2021/06/30 06:44:49;;;;;;;;;;;20.60;60.40;;;;;;1486995;40;19943;-69
2021/06/30 06:46:10;;;;;;;;;;;20.60;60.30;;;;;;1485900;40;20382;-69
2021/06/30 06:47:31;;;;;;;;;;;20.60;60.50;;;;;;1487628;40;19939;-70
2021/06/30 06:48:52;;;;;;;;;;;20.60;60.40;;;;;;1485343;40;20017;-70
2021/06/30 06:50:13;;;;;;;;;;;20.60;60.50;;;;;;1487350;40;19939;-69
2021/06/30 06:51:34;;;;;;;;;;;20.60;60.50;;;;;;1486478;40;19952;-70
2021/06/30 06:52:55;;;;;;;;;;;20.60;60.60;;;;;;1487861;40;20261;-69
2021/06/30 06:54:16;;;;;;;;;;;20.60;60.80;;;;;;1485701;40;19976;-70
2021/06/30 06:55:37;;;;;;;;;;;20.60;60.70;;;;;;1487455;40;19944;-69
2021/06/30 06:56:57;;;;;;;;;;;20.60;60.80;;;;;;1487008;40;19932;-69
2021/06/30 06:58:18;;;;;;;;;;;20.60;61.00;;;;;;1485998;40;19936;-69
2021/06/30 06:59:39;;;;;;;;;;;20.60;61.00;;;;;;1485683;40;19936;-69
2021/06/30 07:01:00;;;;;;;;;;;20.60;61.20;;;;;;1487193;40;19939;-70
2021/06/30 07:02:20;;;;;;;;;;;20.60;61.40;;;;;;1486369;40;20007;-69
2021/06/30 07:03:41;;;;;;;;;;;20.60;61.20;;;;;;1486019;40;19951;-69
2021/06/30 07:05:02;;;;;;;;;;;20.50;60.80;;;;;;1487250;40;19971;-69
2021/06/30 07:06:23;;;;;;;;;;;20.60;61.20;;;;;;1480953;40;19992;-69
2021/06/30 07:07:45;;;;;;;;;;;20.60;61.60;;;;;;1484819;40;19948;-69
2021/06/30 07:09:06;;;;;;;;;;;20.50;61.00;;;;;;1486619;40;19959;-69
2021/06/30 07:10:27;;;;;;;;;;;20.50;60.90;;;;;;1485461;40;19944;-69
2021/06/30 07:11:48;;;;;;;;;;;20.50;60.70;;;;;;1486612;40;19964;-69
2021/06/30 07:13:09;;;;;;;;;;;20.50;60.60;;;;;;1487087;40;19939;-70
2021/06/30 07:14:30;;;;;;;;;;;20.60;60.60;;;;;;1485549;40;19959;-69
2021/06/30 07:15:50;;;;;;;;;;;20.60;60.60;;;;;;1487352;39;20020;-69
2021/06/30 07:17:11;;;;;;;;;;;20.60;61.00;;;;;;1486861;40;19977;-69
2021/06/30 07:18:33;;;;;;;;;;;20.60;61.00;;;;;;1486015;39;19943;-69
2021/06/30 07:19:58;;;;;;;;;;;20.60;61.00;;;;;;1486832;40;19932;-69
2021/06/30 07:21:18;;;;;;;;;;;20.60;61.20;;;;;;1482117;40;19940;-69
2021/06/30 07:22:39;;;;;;;;;;;20.60;61.20;;;;;;1485986;40;20223;-69
2021/06/30 07:24:01;;;;;;;;;;;20.70;61.50;;;;;;1485904;40;19963;-69
2021/06/30 07:25:22;;;;;;;;;;;20.70;61.30;;;;;;1485645;40;19943;-69
2021/06/30 07:26:42;;;;;;;;;;;20.70;61.10;;;;;;1487030;40;19951;-69
2021/06/30 07:28:03;;;;;;;;;;;20.80;60.90;;;;;;1487382;40;20024;-69
2021/06/30 07:29:24;;;;;;;;;;;20.80;61.10;;;;;;1485146;40;19937;-69
2021/06/30 07:30:46;;;;;;;;;;;20.80;61.00;;;;;;1481448;40;19962;-68
2021/06/30 07:32:07;;;;;;;;;;;20.80;60.90;;;;;;1482920;40;19936;-69
2021/06/30 07:33:28;;;;;;;;;;;20.80;61.00;;;;;;1484857;40;19932;-69
2021/06/30 07:34:48;;;;;;;;;;;20.90;60.90;;;;;;1486302;39;19939;-69
2021/06/30 07:36:11;;;;;;;;;;;20.90;60.90;;;;;;1487303;39;19966;-68
2021/06/30 07:37:32;;;;;;;;;;;20.90;60.90;;;;;;1483751;40;19968;-69
2021/06/30 07:38:53;;;;;;;;;;;20.90;61.10;;;;;;1485023;40;19947;-69
2021/06/30 07:40:14;;;;;;;;;;;21.00;60.90;;;;;;1486113;40;19959;-69
2021/06/30 07:41:35;;;;;;;;;;;21.00;60.70;;;;;;1486303;40;20273;-69
2021/06/30 07:42:56;;;;;;;;;;;21.00;60.50;;;;;;1486087;40;19932;-69
2021/06/30 07:44:17;;;;;;;;;;;21.10;60.50;;;;;;1486159;40;20018;-69
2021/06/30 07:45:38;;;;;;;;;;;21.10;60.40;;;;;;1486898;40;19932;-70
2021/06/30 07:46:58;;;;;;;;;;;21.10;60.30;;;;;;1486896;40;19948;-70
2021/06/30 07:48:21;;;;;;;;;;;21.10;60.20;;;;;;1485599;40;19959;-69
2021/06/30 07:49:42;;;;;;;;;;;21.20;60.10;;;;;;1486185;40;20032;-68
2021/06/30 07:51:03;;;;;;;;;;;21.20;60.00;;;;;;1486878;40;19967;-70